Time;durP1;ratioP1;P1;durP2;ratioP2;P2;SDS_P1;SDS_P2;PMS_P1;PMS_P2;Temp;Humidity;BMP_temperature;BMP_pressure;BME280_temperature;BME280_humidity;BME280_pressure;Samples;Min_cycle;Max_cycle;Signal;HPM_P1;HPM_P2
2020/12/13 00:01:46;;;;;;;7.73;6.90;;;20.10;57.50;;;;;;5014071;28;20226;-52
2020/12/13 00:04:13;;;;;;;7.77;7.03;;;20.10;57.50;;;;;;5007410;28;20692;-54
2020/12/13 00:06:39;;;;;;;8.97;7.30;;;20.20;57.20;;;;;;4999330;28;20230;-54
2020/12/13 00:09:05;;;;;;;7.20;6.50;;;20.10;57.30;;;;;;5007807;28;20231;-55
2020/12/13 00:11:35;;;;;;;7.57;6.80;;;20.10;57.40;;;;;;4997996;28;20220;-54
2020/12/13 00:14:03;;;;;;;8.10;6.40;;;20.10;57.50;;;;;;5006338;28;20235;-53
2020/12/13 00:16:29;;;;;;;8.03;6.63;;;20.10;57.40;;;;;;4999284;28;20275;-53
2020/12/13 00:18:55;;;;;;;6.80;6.20;;;20.10;57.60;;;;;;5008139;28;20250;-55
2020/12/13 00:21:26;;;;;;;7.07;6.37;;;20.10;58.00;;;;;;4999076;28;20232;-54
2020/12/13 00:23:54;;;;;;;6.50;5.80;;;20.10;56.90;;;;;;5005162;28;20275;-55
2020/12/13 00:26:20;;;;;;;6.37;5.77;;;20.00;56.90;;;;;;5003741;28;20727;-54
2020/12/13 00:28:48;;;;;;;7.80;6.20;;;20.00;57.10;;;;;;5000768;28;20219;-55
2020/12/13 00:31:15;;;;;;;6.33;5.73;;;19.90;56.80;;;;;;5002543;28;20236;-55
2020/12/13 00:33:42;;;;;;;6.33;5.57;;;19.90;56.90;;;;;;4992673;28;20629;-55
2020/12/13 00:36:09;;;;;;;5.70;5.20;;;19.80;56.90;;;;;;4984759;28;20224;-56
2020/12/13 00:38:36;;;;;;;6.87;6.27;;;19.80;57.00;;;;;;4980008;28;20667;-54
2020/12/13 00:41:03;;;;;;;7.53;5.97;;;19.70;57.10;;;;;;4983911;28;20239;-54
2020/12/13 00:43:29;;;;;;;6.37;5.77;;;19.70;57.20;;;;;;4992293;28;20224;-54
2020/12/13 00:46:01;;;;;;;7.53;5.87;;;19.60;57.30;;;;;;4987419;28;20219;-53
2020/12/13 00:48:27;;;;;;;6.67;6.03;;;19.60;57.30;;;;;;4989744;28;20317;-59
2020/12/13 00:50:53;;;;;;;6.70;6.00;;;19.50;57.30;;;;;;5005454;28;20239;-55
2020/12/13 00:53:22;;;;;;;6.70;6.10;;;19.60;57.50;;;;;;4996988;28;20219;-54
2020/12/13 00:55:48;;;;;;;7.00;5.80;;;19.50;57.50;;;;;;5005758;28;20468;-56
2020/12/13 00:58:15;;;;;;;7.07;5.67;;;19.50;57.50;;;;;;4989756;28;20224;-56
2020/12/13 01:00:41;;;;;;;6.90;6.13;;;19.50;57.50;;;;;;4986373;28;20263;-56
2020/12/13 01:03:07;;;;;;;7.37;5.57;;;19.40;57.60;;;;;;4979833;28;20223;-56
2020/12/13 01:05:34;;;;;;;6.90;5.93;;;19.40;57.70;;;;;;4987089;28;20241;-56
2020/12/13 01:08:00;;;;;;;8.00;5.60;;;19.40;57.70;;;;;;4986423;28;20236;-56
2020/12/13 01:10:27;;;;;;;5.47;4.90;;;19.30;57.70;;;;;;4971769;28;20228;-55
2020/12/13 01:12:53;;;;;;;6.53;5.83;;;19.40;57.80;;;;;;4983978;28;20238;-55
2020/12/13 01:15:19;;;;;;;6.63;5.93;;;19.30;57.80;;;;;;4973141;28;20228;-57
2020/12/13 01:17:46;;;;;;;6.83;5.63;;;19.30;57.90;;;;;;4989298;28;20224;-55
2020/12/13 01:20:15;;;;;;;8.53;6.47;;;19.30;57.90;;;;;;4996716;28;20227;-55
2020/12/13 01:22:41;;;;;;;7.00;5.97;;;19.20;57.80;;;;;;5001741;28;20228;-55
2020/12/13 01:25:09;;;;;;;6.97;5.40;;;19.20;57.90;;;;;;4989537;28;20232;-55
2020/12/13 01:27:36;;;;;;;6.13;5.53;;;19.20;57.90;;;;;;4982376;28;21065;-55
2020/12/13 01:30:05;;;;;;;6.30;5.60;;;19.20;58.00;;;;;;4978619;28;20235;-56
2020/12/13 01:32:41;;;;;;;6.27;5.67;;;19.10;58.00;;;;;;4978915;28;20282;-55
2020/12/13 01:35:10;;;;;;;6.27;5.60;;;19.10;58.10;;;;;;4985778;28;20605;-55
2020/12/13 01:37:37;;;;;;;6.53;5.93;;;19.10;58.10;;;;;;4976888;28;20227;-55
2020/12/13 01:40:06;;;;;;;7.53;6.07;;;19.10;58.10;;;;;;4976712;28;20304;-55
2020/12/13 01:42:40;;;;;;;6.20;5.60;;;19.00;58.10;;;;;;4982226;28;20398;-55
2020/12/13 01:45:08;;;;;;;6.40;5.57;;;19.00;58.20;;;;;;4987784;28;20227;-55
2020/12/13 01:47:35;;;;;;;5.93;5.33;;;19.00;58.30;;;;;;4981903;28;20224;-55
2020/12/13 01:50:03;;;;;;;5.87;5.23;;;19.00;58.20;;;;;;4982734;28;20294;-55
2020/12/13 01:55:08;;;;;;;6.00;5.40;;;18.90;58.40;;;;;;5002117;28;20588;-55
2020/12/13 01:57:39;;;;;;;6.80;6.13;;;18.90;58.30;;;;;;4992127;28;20242;-55
2020/12/13 02:00:10;;;;;;;7.40;6.67;;;18.90;58.40;;;;;;5000610;28;20238;-55
2020/12/13 02:02:52;;;;;;;6.53;5.90;;;18.90;58.40;;;;;;4996078;28;20607;-55
2020/12/13 02:05:20;;;;;;;6.60;5.90;;;18.90;58.40;;;;;;5002670;28;20423;-55
2020/12/13 02:07:49;;;;;;;6.13;5.50;;;18.80;58.50;;;;;;4994524;28;20715;-55
2020/12/13 02:10:16;;;;;;;5.97;5.37;;;18.80;58.50;;;;;;5003103;28;20232;-55
2020/12/13 02:12:43;;;;;;;6.20;5.70;;;18.80;58.50;;;;;;4994673;28;20231;-55
2020/12/13 02:15:09;;;;;;;8.37;6.53;;;18.80;58.50;;;;;;5003666;28;20223;-55
2020/12/13 02:17:36;;;;;;;6.53;5.50;;;18.70;58.60;;;;;;4995690;28;20231;-55
2020/12/13 02:20:14;;;;;;;6.73;6.03;;;18.70;58.60;;;;;;5003089;28;20719;-55
2020/12/13 02:22:41;;;;;;;6.03;5.30;;;18.70;58.60;;;;;;4995838;28;20227;-55
2020/12/13 02:25:12;;;;;;;6.70;6.00;;;18.70;58.60;;;;;;5000924;28;20224;-55
2020/12/13 02:27:39;;;;;;;6.77;6.07;;;18.70;58.50;;;;;;4997731;28;20230;-56
2020/12/13 02:30:07;;;;;;;6.70;6.00;;;18.70;58.60;;;;;;5000951;28;20237;-55
2020/12/13 02:32:35;;;;;;;6.60;6.00;;;18.70;58.60;;;;;;4996052;28;20227;-55
2020/12/13 02:35:05;;;;;;;6.27;5.67;;;18.70;58.60;;;;;;5002041;28;20234;-55
2020/12/13 02:37:32;;;;;;;7.33;5.93;;;18.70;58.60;;;;;;4992407;28;20242;-54
2020/12/13 02:39:59;;;;;;;5.60;5.10;;;18.70;58.60;;;;;;5006291;28;20699;-55
2020/12/13 02:42:26;;;;;;;6.47;5.87;;;18.60;58.60;;;;;;4998321;28;20235;-55
2020/12/13 02:44:52;;;;;;;6.40;5.80;;;18.60;58.60;;;;;;5006814;28;20223;-55
2020/12/13 02:47:18;;;;;;;6.47;5.87;;;18.60;58.70;;;;;;5005120;28;20230;-55
2020/12/13 02:49:45;;;;;;;5.97;5.37;;;18.60;58.80;;;;;;4997038;28;20231;-55
2020/12/13 02:52:11;;;;;;;5.63;5.13;;;18.60;58.80;;;;;;5005014;28;20227;-55
2020/12/13 02:54:37;;;;;;;6.20;5.53;;;18.60;58.70;;;;;;5000371;28;20227;-55
2020/12/13 02:57:04;;;;;;;6.87;6.27;;;18.50;58.80;;;;;;5004087;28;20250;-55
2020/12/13 02:59:30;;;;;;;6.27;5.67;;;18.50;58.80;;;;;;4998655;28;21732;-55
2020/12/13 03:01:57;;;;;;;5.90;5.40;;;18.50;58.80;;;;;;5005018;28;20223;-55
2020/12/13 03:04:23;;;;;;;5.77;5.27;;;18.50;58.70;;;;;;4997692;28;20219;-56
2020/12/13 03:06:51;;;;;;;5.97;5.30;;;18.50;58.80;;;;;;5005783;28;20727;-53
2020/12/13 03:09:17;;;;;;;6.20;5.60;;;18.50;58.80;;;;;;4996511;28;20230;-54
2020/12/13 03:11:43;;;;;;;5.77;5.27;;;18.50;58.80;;;;;;5005306;28;20220;-55
2020/12/13 03:14:10;;;;;;;6.53;5.90;;;18.50;58.80;;;;;;4999556;28;20227;-56
2020/12/13 03:16:36;;;;;;;6.60;6.00;;;18.50;58.80;;;;;;5021568;28;20228;-55
2020/12/13 03:19:02;;;;;;;6.17;5.40;;;18.50;58.80;;;;;;4999102;28;20223;-55
2020/12/13 03:21:29;;;;;;;6.23;5.63;;;18.50;58.80;;;;;;5005525;28;20231;-56
2020/12/13 03:23:57;;;;;;;5.57;4.93;;;18.40;59.40;;;;;;5000381;28;20219;-56
2020/12/13 03:26:23;;;;;;;6.13;5.40;;;18.40;58.80;;;;;;5004654;28;20227;-55
2020/12/13 03:28:52;;;;;;;5.83;5.23;;;18.40;58.80;;;;;;5005844;28;20223;-55
2020/12/13 03:31:18;;;;;;;5.70;5.13;;;18.40;58.80;;;;;;4999164;28;20238;-56
2020/12/13 03:33:46;;;;;;;6.37;5.30;;;18.40;58.90;;;;;;5004613;28;20216;-55
2020/12/13 03:36:14;;;;;;;5.77;5.27;;;18.40;58.80;;;;;;4996140;28;20707;-55
2020/12/13 03:38:40;;;;;;;6.37;5.73;;;18.40;58.80;;;;;;5008809;28;20220;-55
2020/12/13 03:41:06;;;;;;;6.53;5.00;;;18.40;58.80;;;;;;5002048;28;20230;-53
2020/12/13 03:43:32;;;;;;;5.17;4.67;;;18.40;59.00;;;;;;5007226;28;20241;-55
2020/12/13 03:45:59;;;;;;;5.57;5.07;;;18.40;58.90;;;;;;5002365;28;20239;-55
2020/12/13 03:48:26;;;;;;;6.13;5.53;;;18.40;58.90;;;;;;5010005;28;20228;-56
2020/12/13 03:50:52;;;;;;;5.93;5.33;;;18.40;59.00;;;;;;5000631;28;20215;-55
2020/12/13 03:53:19;;;;;;;6.50;5.60;;;18.30;58.90;;;;;;5008865;28;20696;-56
2020/12/13 03:55:45;;;;;;;6.00;5.50;;;18.30;58.90;;;;;;5001344;28;20704;-55
2020/12/13 03:58:12;;;;;;;5.50;5.00;;;18.30;58.90;;;;;;5008567;28;20254;-56
2020/12/13 04:00:39;;;;;;;5.70;5.20;;;18.30;59.00;;;;;;4999738;28;20228;-56
2020/12/13 04:03:05;;;;;;;5.63;5.03;;;18.30;59.00;;;;;;5009236;28;20227;-56
2020/12/13 04:05:33;;;;;;;5.63;5.10;;;18.30;59.00;;;;;;5008272;28;20231;-55
2020/12/13 04:08:00;;;;;;;5.87;5.30;;;18.30;59.00;;;;;;5000651;28;20216;-54
2020/12/13 04:10:26;;;;;;;5.47;4.97;;;18.30;58.90;;;;;;5007552;28;20250;-54
2020/12/13 04:12:53;;;;;;;7.13;5.40;;;18.30;58.90;;;;;;4999788;28;20567;-56
2020/12/13 04:15:19;;;;;;;6.53;5.70;;;18.30;58.90;;;;;;5007013;28;20230;-54
2020/12/13 04:17:46;;;;;;;5.53;5.03;;;18.20;58.90;;;;;;5001632;28;20235;-54
2020/12/13 04:20:13;;;;;;;7.20;5.30;;;18.30;59.00;;;;;;5007370;28;20904;-56
2020/12/13 04:22:39;;;;;;;5.90;5.33;;;18.20;59.00;;;;;;5001452;28;20241;-55
2020/12/13 04:25:07;;;;;;;5.60;5.10;;;18.20;58.90;;;;;;5006832;28;20235;-56
2020/12/13 04:27:33;;;;;;;5.23;4.73;;;18.20;59.00;;;;;;5001508;28;20239;-56
2020/12/13 04:30:00;;;;;;;5.87;5.30;;;18.20;59.00;;;;;;5006924;28;20834;-56
2020/12/13 04:32:27;;;;;;;5.87;5.27;;;18.20;59.00;;;;;;5002890;28;20227;-54
2020/12/13 04:34:53;;;;;;;5.40;4.90;;;18.30;59.00;;;;;;5022711;28;20251;-56
2020/12/13 04:37:23;;;;;;;6.17;5.57;;;18.20;59.00;;;;;;5000393;28;20231;-56
2020/12/13 04:39:53;;;;;;;5.23;4.73;;;18.20;58.90;;;;;;5006946;28;20224;-56
2020/12/13 04:42:22;;;;;;;5.67;5.17;;;18.20;59.00;;;;;;5000899;28;20269;-56
2020/12/13 04:44:49;;;;;;;5.47;4.97;;;18.20;58.90;;;;;;5007312;28;20595;-54
2020/12/13 04:47:17;;;;;;;5.63;5.03;;;18.20;59.00;;;;;;5007599;28;20223;-56
2020/12/13 04:49:50;;;;;;;5.97;5.37;;;18.20;59.00;;;;;;5000482;28;20235;-56
2020/12/13 04:52:17;;;;;;;5.30;4.80;;;18.20;59.10;;;;;;5006219;28;20235;-57
2020/12/13 04:54:49;;;;;;;5.00;4.60;;;18.20;59.10;;;;;;5000511;28;20247;-54
2020/12/13 04:57:18;;;;;;;5.40;4.90;;;18.20;59.10;;;;;;5004984;28;20235;-55
2020/12/13 04:59:47;;;;;;;4.63;4.30;;;18.20;59.10;;;;;;4999624;28;20227;-54
2020/12/13 05:02:14;;;;;;;5.20;4.70;;;18.20;59.00;;;;;;5006034;28;20231;-55
2020/12/13 05:04:42;;;;;;;5.20;4.70;;;18.10;59.00;;;;;;5000768;28;20702;-55
2020/12/13 05:07:09;;;;;;;5.27;4.73;;;18.10;59.00;;;;;;5007078;28;20246;-55
2020/12/13 05:09:39;;;;;;;6.47;5.10;;;18.20;59.10;;;;;;5001354;28;20242;-55
2020/12/13 05:12:05;;;;;;;5.63;5.03;;;18.10;59.00;;;;;;5005376;28;20232;-55
2020/12/13 05:14:31;;;;;;;4.80;4.40;;;18.10;59.00;;;;;;4999369;28;20227;-55
2020/12/13 05:17:09;;;;;;;4.80;4.30;;;18.10;59.00;;;;;;5005326;28;20250;-55
2020/12/13 05:19:38;;;;;;;5.53;5.03;;;18.10;59.00;;;;;;4997066;28;21858;-55
2020/12/13 05:22:05;;;;;;;4.63;4.23;;;18.10;59.00;;;;;;4996727;28;21387;-55
2020/12/13 05:24:33;;;;;;;6.17;4.60;;;18.10;59.00;;;;;;4982968;28;20239;-55
2020/12/13 05:27:02;;;;;;;5.17;4.67;;;18.10;59.00;;;;;;5003503;28;20615;-55
2020/12/13 05:29:34;;;;;;;4.87;4.47;;;18.10;59.00;;;;;;4998384;28;20239;-57
2020/12/13 05:32:27;;;;;;;5.27;4.77;;;18.10;59.10;;;;;;4998929;28;20242;-54
2020/12/13 05:34:53;;;;;;;4.60;4.20;;;18.10;60.10;;;;;;4992980;28;20854;-56
2020/12/13 05:37:19;;;;;;;4.43;4.03;;;18.10;60.70;;;;;;5005697;28;20231;-56
2020/12/13 05:39:51;;;;;;;4.47;4.07;;;18.20;60.40;;;;;;4999045;28;20600;-56
2020/12/13 05:42:40;;;;;;;4.40;4.00;;;18.20;60.40;;;;;;5003943;28;20235;-58
2020/12/13 05:45:15;;;;;;;4.70;4.20;;;18.30;60.70;;;;;;5000519;28;20234;-55
2020/12/13 05:52:50;;;;;;;4.20;3.80;;;18.40;59.70;;;;;;5002147;28;20238;-55
2020/12/13 05:55:18;;;;;;;4.07;3.77;;;18.50;59.90;;;;;;4998225;28;20223;-54
2020/12/13 05:57:49;;;;;;;4.33;3.87;;;18.60;59.70;;;;;;5005136;28;20546;-54
2020/12/13 06:00:17;;;;;;;5.10;3.67;;;18.60;59.30;;;;;;5002743;28;20719;-54
2020/12/13 06:02:49;;;;;;;4.97;3.70;;;18.60;59.30;;;;;;4998349;28;20241;-54
2020/12/13 06:05:16;;;;;;;3.90;3.60;;;18.70;59.20;;;;;;5006041;28;20227;-54
2020/12/13 06:07:50;;;;;;;3.80;3.47;;;18.70;59.30;;;;;;4993730;28;20332;-54
2020/12/13 06:10:26;;;;;;;3.60;3.30;;;18.70;58.90;;;;;;4984689;28;20601;-57
2020/12/13 06:13:06;;;;;;;6.93;3.67;;;18.80;59.10;;;;;;4974644;28;20235;-54
2020/12/13 06:15:33;;;;;;;4.03;3.47;;;18.80;58.80;;;;;;4985440;28;20226;-54
2020/12/13 06:18:01;;;;;;;6.93;3.47;;;18.80;59.00;;;;;;4977172;28;20236;-55
2020/12/13 06:20:28;;;;;;;3.60;3.30;;;18.90;58.60;;;;;;4991032;28;20242;-56
2020/12/13 06:22:55;;;;;;;3.30;3.00;;;18.90;58.50;;;;;;4986769;28;20224;-55
2020/12/13 06:25:22;;;;;;;3.53;3.23;;;18.90;58.40;;;;;;4984356;28;20217;-53
2020/12/13 06:27:51;;;;;;;4.27;3.63;;;18.90;58.40;;;;;;4978457;28;20236;-54
2020/12/13 06:30:19;;;;;;;4.37;3.80;;;18.90;58.80;;;;;;4985370;28;20224;-54
2020/12/13 06:32:50;;;;;;;5.27;3.67;;;18.90;58.50;;;;;;4978676;28;20247;-56
2020/12/13 06:35:18;;;;;;;4.63;3.60;;;19.00;58.30;;;;;;4985487;28;20251;-54
2020/12/13 06:37:45;;;;;;;3.93;3.50;;;19.00;58.40;;;;;;4978257;28;20243;-56
2020/12/13 06:40:22;;;;;;;3.37;3.07;;;19.00;58.30;;;;;;4986309;28;20235;-57
2020/12/13 06:42:50;;;;;;;3.97;3.57;;;19.10;58.20;;;;;;4977573;28;20583;-54
2020/12/13 06:45:17;;;;;;;4.07;3.67;;;19.10;58.10;;;;;;4982109;28;20228;-53
2020/12/13 06:47:49;;;;;;;3.70;3.40;;;19.10;58.60;;;;;;4991923;28;20798;-54
2020/12/13 06:50:23;;;;;;;6.57;3.70;;;19.10;57.90;;;;;;4984230;28;20236;-54
2020/12/13 06:52:51;;;;;;;8.07;3.90;;;19.10;58.00;;;;;;4978617;28;20235;-55
2020/12/13 06:55:17;;;;;;;3.90;3.50;;;19.10;58.10;;;;;;4986265;28;20287;-55
2020/12/13 06:57:49;;;;;;;4.07;3.43;;;19.10;58.30;;;;;;4986554;28;20286;-55
2020/12/13 07:00:15;;;;;;;3.90;3.47;;;19.20;58.30;;;;;;4982452;28;21548;-53
2020/12/13 07:02:56;;;;;;;4.13;3.57;;;19.10;57.70;;;;;;5000755;28;20796;-54
2020/12/13 07:05:47;;;;;;;3.87;3.57;;;19.20;58.30;;;;;;4997717;28;22183;-53
2020/12/13 07:08:17;;;;;;;3.63;3.33;;;19.20;58.20;;;;;;4985773;28;20436;-55
2020/12/13 07:10:49;;;;;;;6.27;3.30;;;19.20;57.90;;;;;;4985816;28;20631;-55
2020/12/13 07:13:19;;;;;;;3.80;3.37;;;19.20;58.10;;;;;;4998516;28;20219;-55
2020/12/13 07:16:03;;;;;;;4.13;3.73;;;19.20;58.20;;;;;;4992744;28;20247;-56
2020/12/13 07:18:32;;;;;;;3.97;3.57;;;19.20;58.70;;;;;;5002684;28;21237;-54
2020/12/13 07:20:58;;;;;;;3.83;3.30;;;19.20;57.90;;;;;;5000763;28;20755;-54
2020/12/13 07:23:26;;;;;;;4.50;3.43;;;19.20;57.80;;;;;;4988537;28;20259;-54
2020/12/13 07:25:54;;;;;;;4.77;3.50;;;19.20;58.10;;;;;;4984889;28;20250;-58
2020/12/13 07:28:22;;;;;;;4.27;3.50;;;19.20;58.40;;;;;;4984828;28;20243;-58
2020/12/13 07:30:55;;;;;;;4.27;3.03;;;19.30;58.50;;;;;;4980465;28;20243;-58
2020/12/13 07:33:23;;;;;;;3.63;3.13;;;19.30;58.10;;;;;;5003220;28;20758;-58
2020/12/13 07:35:49;;;;;;;4.20;2.87;;;19.30;57.20;;;;;;4972021;28;20641;-58
2020/12/13 07:38:15;;;;;;;3.17;2.87;;;19.20;57.30;;;;;;4987329;28;20239;-60
2020/12/13 07:40:42;;;;;;;4.90;3.47;;;19.20;57.10;;;;;;4980162;28;21156;-59
2020/12/13 07:43:09;;;;;;;5.13;3.00;;;19.10;57.00;;;;;;4988592;28;20228;-58
2020/12/13 07:45:36;;;;;;;3.53;3.00;;;19.10;57.00;;;;;;4984428;28;20251;-59
2020/12/13 07:48:03;;;;;;;3.17;2.87;;;19.00;56.90;;;;;;5009176;28;20235;-60
2020/12/13 07:50:34;;;;;;;3.40;2.87;;;19.00;56.90;;;;;;4989807;28;20923;-58
2020/12/13 07:53:03;;;;;;;5.17;3.07;;;19.00;57.70;;;;;;4992039;28;20232;-60
2020/12/13 07:55:29;;;;;;;4.00;3.10;;;19.00;56.90;;;;;;4977583;28;25209;-60
2020/12/13 07:57:57;;;;;;;3.70;2.90;;;19.00;56.90;;;;;;4988533;28;20700;-59
2020/12/13 08:00:25;;;;;;;4.30;3.10;;;18.90;57.00;;;;;;4979774;28;20956;-60
2020/12/13 08:03:00;;;;;;;3.03;2.73;;;18.90;57.10;;;;;;5005112;28;20587;-58
2020/12/13 08:05:27;;;;;;;3.60;2.80;;;18.90;57.00;;;;;;4997981;28;20219;-58
2020/12/13 08:08:00;;;;;;;3.70;2.80;;;18.90;57.00;;;;;;4980194;28;20308;-61
2020/12/13 08:10:30;;;;;;;5.93;3.23;;;18.90;56.90;;;;;;4985783;28;20227;-60
2020/12/13 08:12:57;;;;;;;12.00;2.60;;;18.90;57.60;;;;;;4987988;28;20216;-62
2020/12/13 08:15:23;;;;;;;4.57;2.47;;;19.20;57.30;;;;;;4988239;28;20719;-62
2020/12/13 08:18:06;;;;;;;2.60;2.17;;;20.00;55.40;;;;;;4987133;28;20240;-64
2020/12/13 08:20:37;;;;;;;2.63;1.90;;;20.60;54.30;;;;;;5005865;28;20237;-65
2020/12/13 08:23:07;;;;;;;3.23;1.80;;;21.10;53.70;;;;;;4996864;28;20325;-64
2020/12/13 08:25:37;;;;;;;1.60;1.50;;;21.50;53.20;;;;;;5005474;28;20223;-65
2020/12/13 08:28:06;;;;;;;2.37;1.70;;;21.80;52.60;;;;;;4997169;28;20387;-62
2020/12/13 08:30:34;;;;;;;3.23;1.80;;;22.10;51.90;;;;;;5005344;28;20234;-63
2020/12/13 08:33:00;;;;;;;1.50;1.40;;;22.30;51.90;;;;;;4994837;28;20223;-64
2020/12/13 08:35:28;;;;;;;2.40;1.80;;;22.50;51.70;;;;;;5004619;28;20610;-67
2020/12/13 08:37:56;;;;;;;3.30;1.50;;;22.70;51.70;;;;;;4994802;28;20593;-66
2020/12/13 08:40:34;;;;;;;2.63;1.80;;;22.80;51.30;;;;;;4983925;28;20832;-64
2020/12/13 08:43:00;;;;;;;1.87;1.47;;;23.00;50.80;;;;;;4976842;28;20234;-65
2020/12/13 08:45:27;;;;;;;2.00;1.63;;;23.20;50.30;;;;;;4984906;28;20239;-64
2020/12/13 08:48:06;;;;;;;1.70;1.30;;;23.30;50.00;;;;;;4978463;28;20220;-65
2020/12/13 08:50:41;;;;;;;2.90;1.70;;;23.60;49.60;;;;;;4989382;28;20243;-62
2020/12/13 08:53:27;;;;;;;3.00;1.77;;;23.70;49.50;;;;;;4974870;28;20242;-64
2020/12/13 08:56:02;;;;;;;2.43;1.40;;;23.90;49.10;;;;;;4995305;28;20242;-63
2020/12/13 08:58:28;;;;;;;4.20;1.60;;;24.00;48.30;;;;;;4984471;28;21122;-63
2020/12/13 09:01:06;;;;;;;2.10;1.50;;;24.20;48.70;;;;;;4983802;28;20671;-64
2020/12/13 09:03:32;;;;;;;4.33;1.90;;;24.30;48.30;;;;;;4981643;28;20230;-65
2020/12/13 09:05:59;;;;;;;3.67;1.77;;;24.30;48.50;;;;;;4990373;28;20217;-62
2020/12/13 09:08:25;;;;;;;2.00;1.37;;;24.60;48.00;;;;;;4977565;28;20224;-62
2020/12/13 09:10:53;;;;;;;4.03;1.43;;;24.70;47.30;;;;;;4998042;28;20259;-63
2020/12/13 09:13:19;;;;;;;2.07;1.63;;;24.90;47.00;;;;;;4985975;28;20231;-64
2020/12/13 09:15:46;;;;;;;1.70;1.60;;;25.00;46.60;;;;;;4976841;28;20228;-64
2020/12/13 09:18:12;;;;;;;3.97;1.50;;;25.10;46.40;;;;;;4984444;28;20614;-62
2020/12/13 09:20:40;;;;;;;4.27;1.40;;;25.30;46.40;;;;;;4968216;28;20747;-63
2020/12/13 09:23:19;;;;;;;2.30;1.40;;;25.30;46.10;;;;;;4983556;28;20487;-62
2020/12/13 09:25:46;;;;;;;2.73;1.73;;;25.50;46.10;;;;;;4986693;28;20224;-63
2020/12/13 09:28:14;;;;;;;7.97;1.60;;;25.60;45.90;;;;;;4978221;28;20217;-62
2020/12/13 09:30:41;;;;;;;1.80;1.50;;;25.60;45.80;;;;;;4973120;28;20232;-62
2020/12/13 09:33:08;;;;;;;3.13;1.60;;;25.60;45.80;;;;;;4977846;28;20223;-64
2020/12/13 09:35:35;;;;;;;3.60;1.60;;;25.80;45.60;;;;;;4969485;28;20228;-63
2020/12/13 09:38:12;;;;;;;3.03;1.53;;;25.90;45.50;;;;;;4980745;28;20227;-62
2020/12/13 09:40:40;;;;;;;3.70;1.60;;;26.00;45.40;;;;;;4971977;28;20899;-63
2020/12/13 09:43:11;;;;;;;3.20;1.43;;;26.10;45.20;;;;;;4980823;28;20668;-62
2020/12/13 09:45:44;;;;;;;4.07;1.30;;;26.10;45.10;;;;;;4968816;28;20224;-60
2020/12/13 09:48:34;;;;;;;4.87;1.93;;;26.30;44.80;;;;;;4978244;28;21726;-62
2020/12/13 09:51:16;;;;;;;4.33;1.40;;;26.30;44.90;;;;;;4973252;28;20223;-59
2020/12/13 09:54:03;;;;;;;5.17;1.67;;;26.40;45.20;;;;;;4981789;28;20722;-61
2020/12/13 09:56:45;;;;;;;4.80;1.67;;;26.50;44.90;;;;;;4973098;28;20935;-61
2020/12/13 09:59:31;;;;;;;3.03;1.63;;;26.50;45.20;;;;;;4983454;28;20361;-61
2020/12/13 10:01:58;;;;;;;3.50;1.47;;;26.70;44.60;;;;;;4992002;28;20251;-61
2020/12/13 10:04:25;;;;;;;1.97;1.30;;;26.70;44.30;;;;;;4988225;28;20460;-62
2020/12/13 10:09:26;;;;;;;3.33;1.30;;;26.80;43.90;;;;;;4982823;28;20223;-61
2020/12/13 10:11:52;;;;;;;2.53;1.13;;;26.80;43.70;;;;;;4977864;28;20231;-61
2020/12/13 10:14:20;;;;;;;1.47;1.33;;;26.80;43.60;;;;;;4986859;28;20793;-62
2020/12/13 10:16:46;;;;;;;1.50;1.40;;;27.00;43.60;;;;;;4989693;28;20227;-61
2020/12/13 10:19:13;;;;;;;6.67;1.50;;;27.00;44.60;;;;;;4998950;28;20228;-63
2020/12/13 10:21:39;;;;;;;3.47;1.60;;;27.10;43.90;;;;;;4974543;28;20264;-60
2020/12/13 10:24:07;;;;;;;3.87;1.60;;;27.00;43.40;;;;;;4985428;28;20235;-62
2020/12/13 10:26:39;;;;;;;2.77;1.90;;;26.50;44.60;;;;;;4972610;28;20226;-63
2020/12/13 10:29:06;;;;;;;6.30;1.60;;;26.10;45.50;;;;;;4972078;28;20614;-62
2020/12/13 10:31:38;;;;;;;5.63;1.77;;;25.80;46.50;;;;;;4979507;28;20231;-63
2020/12/13 10:34:06;;;;;;;5.20;1.70;;;25.70;46.80;;;;;;5013180;28;21711;-64
2020/12/13 10:36:34;;;;;;;2.80;1.50;;;25.50;47.20;;;;;;4989547;28;20757;-61
2020/12/13 10:39:03;;;;;;;6.30;1.70;;;25.40;47.40;;;;;;4976019;28;20708;-64
2020/12/13 10:41:30;;;;;;;3.03;1.80;;;25.30;47.50;;;;;;4983108;28;20251;-65
2020/12/13 10:43:56;;;;;;;2.20;1.50;;;25.20;47.70;;;;;;4973634;28;20235;-66
2020/12/13 10:46:22;;;;;;;5.90;1.80;;;25.10;47.90;;;;;;4983358;28;20228;-61
2020/12/13 10:48:49;;;;;;;3.30;1.83;;;25.10;47.60;;;;;;4980026;28;20782;-60
2020/12/13 10:51:17;;;;;;;4.60;1.80;;;25.00;47.70;;;;;;4988342;28;20231;-62
2020/12/13 10:53:45;;;;;;;2.53;1.53;;;24.90;48.10;;;;;;4981554;28;20240;-62
2020/12/13 10:56:12;;;;;;;3.67;1.53;;;24.90;47.90;;;;;;4986677;28;20238;-64
2020/12/13 10:58:44;;;;;;;2.43;1.70;;;24.90;48.00;;;;;;4980179;28;20224;-63
2020/12/13 11:01:11;;;;;;;3.17;1.90;;;24.80;48.00;;;;;;4996470;28;20247;-64
2020/12/13 11:03:38;;;;;;;3.00;1.60;;;24.80;48.20;;;;;;4980789;28;20236;-62
2020/12/13 11:06:07;;;;;;;1.93;1.30;;;24.70;48.80;;;;;;4988378;28;20236;-62
2020/12/13 11:08:33;;;;;;;16.20;1.80;;;24.70;48.50;;;;;;4980480;28;20929;-60
2020/12/13 11:10:59;;;;;;;2.50;1.43;;;24.60;48.00;;;;;;4979369;28;20243;-61
2020/12/13 11:13:26;;;;;;;8.67;1.90;;;24.50;48.20;;;;;;4994222;28;20233;-60
2020/12/13 11:15:52;;;;;;;5.93;2.53;;;24.10;46.50;;;;;;5003451;28;20238;-57
2020/12/13 11:18:19;;;;;;;4.23;2.10;;;23.60;45.10;;;;;;4997026;28;20250;-57
2020/12/13 11:20:46;;;;;;;14.50;2.60;;;23.30;46.30;;;;;;4975640;28;20227;-57
2020/12/13 11:23:12;;;;;;;5.67;1.90;;;23.00;46.80;;;;;;4988718;28;20235;-58
2020/12/13 11:25:39;;;;;;;4.63;2.07;;;22.80;47.20;;;;;;4981969;28;20751;-58
2020/12/13 11:28:06;;;;;;;3.67;1.97;;;22.70;47.60;;;;;;4988228;28;20224;-59
2020/12/13 11:30:33;;;;;;;5.37;2.17;;;22.60;47.70;;;;;;4983031;28;20752;-59
2020/12/13 11:33:00;;;;;;;3.23;1.97;;;22.40;47.90;;;;;;4997116;28;20310;-59
2020/12/13 11:35:27;;;;;;;4.83;2.10;;;22.30;48.30;;;;;;4982783;28;20252;-59
2020/12/13 11:37:53;;;;;;;5.87;2.10;;;22.30;48.40;;;;;;4987055;28;20231;-57
2020/12/13 11:40:19;;;;;;;5.40;2.27;;;22.10;48.90;;;;;;4980606;28;20235;-57
2020/12/13 11:42:46;;;;;;;3.80;2.20;;;22.10;48.70;;;;;;5000710;28;20235;-58
2020/12/13 11:45:14;;;;;;;3.67;2.10;;;22.00;49.00;;;;;;4992019;28;20227;-57
2020/12/13 11:47:40;;;;;;;5.17;2.17;;;22.00;48.90;;;;;;4985960;28;20231;-59
2020/12/13 11:50:06;;;;;;;4.70;1.87;;;21.90;49.10;;;;;;4993061;28;20235;-58
2020/12/13 11:52:33;;;;;;;4.47;1.87;;;21.90;49.20;;;;;;4987594;28;20227;-60
2020/12/13 11:54:59;;;;;;;10.60;2.50;;;21.70;49.50;;;;;;5000435;28;20226;-64
2020/12/13 11:57:26;;;;;;;9.73;2.00;;;21.90;50.70;;;;;;4996619;28;20683;-62
2020/12/13 11:59:52;;;;;;;3.17;1.90;;;22.10;50.90;;;;;;5004632;28;20235;-63
2020/12/13 12:02:19;;;;;;;15.37;2.73;;;22.20;50.60;;;;;;4996867;28;20219;-61
2020/12/13 12:04:46;;;;;;;7.23;2.00;;;22.30;50.60;;;;;;5005142;28;20227;-62
2020/12/13 12:07:13;;;;;;;5.20;2.00;;;22.40;50.70;;;;;;4997198;28;20594;-62
2020/12/13 12:09:39;;;;;;;4.47;1.87;;;22.50;50.70;;;;;;5004562;28;20589;-62
2020/12/13 12:12:06;;;;;;;7.53;2.07;;;22.50;50.40;;;;;;4981666;28;20321;-66
2020/12/13 12:14:32;;;;;;;5.03;2.23;;;22.50;50.20;;;;;;4983626;28;20235;-61
2020/12/13 12:17:02;;;;;;;8.03;1.90;;;22.50;50.30;;;;;;4974334;28;20250;-62
2020/12/13 12:19:28;;;;;;;3.07;1.80;;;22.50;50.00;;;;;;4983296;28;20231;-67
2020/12/13 12:21:55;;;;;;;9.27;2.70;;;22.50;50.00;;;;;;4973788;28;20238;-66
2020/12/13 12:24:21;;;;;;;4.03;1.97;;;22.50;50.50;;;;;;4997354;28;20234;-64
2020/12/13 12:26:53;;;;;;;4.13;1.93;;;22.50;50.30;;;;;;4974635;28;20235;-63
2020/12/13 12:29:20;;;;;;;4.60;1.53;;;22.50;50.40;;;;;;4985597;28;20240;-64
2020/12/13 12:31:47;;;;;;;4.90;1.70;;;22.50;50.00;;;;;;4971162;28;20588;-63
2020/12/13 12:34:15;;;;;;;4.73;2.10;;;22.50;50.30;;;;;;4983916;28;20226;-62
2020/12/13 12:36:42;;;;;;;8.10;2.33;;;22.50;50.30;;;;;;4988457;28;20290;-61
2020/12/13 12:39:08;;;;;;;6.33;1.80;;;22.50;50.40;;;;;;4992308;28;20714;-60
2020/12/13 12:41:36;;;;;;;5.90;2.23;;;22.50;50.30;;;;;;5019174;28;20931;-63
2020/12/13 12:44:02;;;;;;;5.30;2.00;;;22.50;50.50;;;;;;4993668;28;20239;-62
2020/12/13 12:46:29;;;;;;;3.10;1.60;;;22.50;50.30;;;;;;5005385;28;20223;-62
2020/12/13 12:48:58;;;;;;;3.33;1.90;;;22.50;50.10;;;;;;4998323;28;20228;-62
2020/12/13 12:51:28;;;;;;;2.63;1.40;;;22.60;50.80;;;;;;5003723;28;20638;-64
2020/12/13 12:53:54;;;;;;;3.27;1.70;;;22.60;50.30;;;;;;4999780;28;20215;-64
2020/12/13 12:56:21;;;;;;;2.47;1.70;;;22.50;50.20;;;;;;5004383;28;20242;-64
2020/12/13 12:58:58;;;;;;;4.87;1.90;;;22.60;50.10;;;;;;4998232;28;20227;-56
2020/12/13 13:01:32;;;;;;;5.10;2.10;;;22.30;48.30;;;;;;4989749;28;20505;-57
2020/12/13 13:04:04;;;;;;;2.33;1.77;;;21.90;49.40;;;;;;4985656;28;20687;-59